sensor_id;sensor_type;location;lat;lon;timestamp;temperature;humidity
16825;DHT22;8529;48.108;-1.706;2022-11-20T00:01:17;8.20;99.90
16825;DHT22;8529;48.108;-1.706;2022-11-20T00:03:44;8.20;99.90
16825;DHT22;8529;48.108;-1.706;2022-11-20T00:06:13;8.30;99.90
16825;DHT22;8529;48.108;-1.706;2022-11-20T00:08:41;8.30;99.90
16825;DHT22;8529;48.108;-1.706;2022-11-20T00:11:09;8.40;99.90
16825;DHT22;8529;48.108;-1.706;2022-11-20T00:13:37;8.40;99.90
16825;DHT22;8529;48.108;-1.706;2022-11-20T00:16:05;8.40;99.90
16825;DHT22;8529;48.108;-1.706;2022-11-20T00:18:34;8.40;99.90
16825;DHT22;8529;48.108;-1.706;2022-11-20T00:21:02;8.40;99.90
16825;DHT22;8529;48.108;-1.706;2022-11-20T00:23:29;8.40;99.90
16825;DHT22;8529;48.108;-1.706;2022-11-20T00:25:56;8.50;99.90
16825;DHT22;8529;48.108;-1.706;2022-11-20T00:28:27;8.50;99.90
16825;DHT22;8529;48.108;-1.706;2022-11-20T00:31:00;8.50;99.90
16825;DHT22;8529;48.108;-1.706;2022-11-20T00:33:28;8.50;99.90
16825;DHT22;8529;48.108;-1.706;2022-11-20T00:36:00;8.50;99.90
16825;DHT22;8529;48.108;-1.706;2022-11-20T00:38:28;8.60;99.90
16825;DHT22;8529;48.108;-1.706;2022-11-20T00:40:56;8.60;99.90
16825;DHT22;8529;48.108;-1.706;2022-11-20T00:43:23;8.60;99.90
16825;DHT22;8529;48.108;-1.706;2022-11-20T00:45:50;8.60;99.90
16825;DHT22;8529;48.108;-1.706;2022-11-20T00:48:17;8.60;99.90
16825;DHT22;8529;48.108;-1.706;2022-11-20T00:50:44;8.60;99.90
16825;DHT22;8529;48.108;-1.706;2022-11-20T00:53:13;8.60;99.90
16825;DHT22;8529;48.108;-1.706;2022-11-20T00:55:40;8.60;99.90
16825;DHT22;8529;48.108;-1.706;2022-11-20T00:58:08;8.60;99.90
16825;DHT22;8529;48.108;-1.706;2022-11-20T01:00:35;8.60;99.90
16825;DHT22;8529;48.108;-1.706;2022-11-20T01:03:02;8.70;99.90
16825;DHT22;8529;48.108;-1.706;2022-11-20T01:05:33;8.70;99.90
16825;DHT22;8529;48.108;-1.706;2022-11-20T01:08:00;8.70;99.90
16825;DHT22;8529;48.108;-1.706;2022-11-20T01:10:29;8.70;99.90
16825;DHT22;8529;48.108;-1.706;2022-11-20T01:12:55;8.70;99.90
16825;DHT22;8529;48.108;-1.706;2022-11-20T01:15:36;8.70;99.90
16825;DHT22;8529;48.108;-1.706;2022-11-20T01:18:03;8.70;99.90
16825;DHT22;8529;48.108;-1.706;2022-11-20T01:20:33;8.70;99.90
16825;DHT22;8529;48.108;-1.706;2022-11-20T01:23:00;8.70;99.90
16825;DHT22;8529;48.108;-1.706;2022-11-20T01:25:29;8.80;99.90
16825;DHT22;8529;48.108;-1.706;2022-11-20T01:27:56;8.80;99.90
16825;DHT22;8529;48.108;-1.706;2022-11-20T01:30:23;8.70;99.90
16825;DHT22;8529;48.108;-1.706;2022-11-20T01:32:50;8.70;99.90
16825;DHT22;8529;48.108;-1.706;2022-11-20T01:35:17;8.70;99.90
16825;DHT22;8529;48.108;-1.706;2022-11-20T01:37:44;8.70;99.90
16825;DHT22;8529;48.108;-1.706;2022-11-20T01:40:11;8.70;99.90
16825;DHT22;8529;48.108;-1.706;2022-11-20T01:42:46;8.70;99.90
16825;DHT22;8529;48.108;-1.706;2022-11-20T01:46:02;8.70;99.90
16825;DHT22;8529;48.108;-1.706;2022-11-20T01:48:33;8.70;99.90
16825;DHT22;8529;48.108;-1.706;2022-11-20T01:51:03;8.70;99.90
16825;DHT22;8529;48.108;-1.706;2022-11-20T01:53:32;8.70;99.90
16825;DHT22;8529;48.108;-1.706;2022-11-20T01:56:01;8.70;99.90
16825;DHT22;8529;48.108;-1.706;2022-11-20T01:58:33;8.70;99.90
16825;DHT22;8529;48.108;-1.706;2022-11-20T02:01:03;8.80;99.90
16825;DHT22;8529;48.108;-1.706;2022-11-20T02:03:31;8.80;99.90
16825;DHT22;8529;48.108;-1.706;2022-11-20T02:06:04;8.80;99.90
16825;DHT22;8529;48.108;-1.706;2022-11-20T02:08:33;8.80;99.90
16825;DHT22;8529;48.108;-1.706;2022-11-20T02:11:00;8.80;99.90
16825;DHT22;8529;48.108;-1.706;2022-11-20T02:13:27;8.80;99.90
16825;DHT22;8529;48.108;-1.706;2022-11-20T02:16:20;8.80;99.90
16825;DHT22;8529;48.108;-1.706;2022-11-20T02:18:48;8.80;99.90
16825;DHT22;8529;48.108;-1.706;2022-11-20T02:21:24;8.80;99.90
16825;DHT22;8529;48.108;-1.706;2022-11-20T02:26:50;8.80;99.90
16825;DHT22;8529;48.108;-1.706;2022-11-20T02:29:23;8.80;99.90
16825;DHT22;8529;48.108;-1.706;2022-11-20T02:31:51;8.80;99.90
16825;DHT22;8529;48.108;-1.706;2022-11-20T02:34:20;8.80;99.90
16825;DHT22;8529;48.108;-1.706;2022-11-20T02:36:48;8.80;99.90
16825;DHT22;8529;48.108;-1.706;2022-11-20T02:39:19;8.80;99.90
16825;DHT22;8529;48.108;-1.706;2022-11-20T02:41:47;8.80;99.90
16825;DHT22;8529;48.108;-1.706;2022-11-20T02:44:14;8.90;99.90
16825;DHT22;8529;48.108;-1.706;2022-11-20T02:46:41;8.90;99.90
16825;DHT22;8529;48.108;-1.706;2022-11-20T02:49:08;8.90;99.90
16825;DHT22;8529;48.108;-1.706;2022-11-20T02:51:35;8.90;99.90
16825;DHT22;8529;48.108;-1.706;2022-11-20T02:54:02;8.90;99.90
16825;DHT22;8529;48.108;-1.706;2022-11-20T02:56:30;8.90;99.90
16825;DHT22;8529;48.108;-1.706;2022-11-20T02:58:57;8.90;99.90
16825;DHT22;8529;48.108;-1.706;2022-11-20T03:01:24;8.90;99.90
16825;DHT22;8529;48.108;-1.706;2022-11-20T03:03:51;8.90;99.90
16825;DHT22;8529;48.108;-1.706;2022-11-20T03:06:20;8.90;99.90
16825;DHT22;8529;48.108;-1.706;2022-11-20T03:08:47;8.90;99.90
16825;DHT22;8529;48.108;-1.706;2022-11-20T03:11:14;8.90;99.90
16825;DHT22;8529;48.108;-1.706;2022-11-20T03:13:42;8.90;99.90
16825;DHT22;8529;48.108;-1.706;2022-11-20T03:16:11;8.90;99.90
16825;DHT22;8529;48.108;-1.706;2022-11-20T03:18:38;8.90;99.90
16825;DHT22;8529;48.108;-1.706;2022-11-20T03:21:06;8.90;99.90
16825;DHT22;8529;48.108;-1.706;2022-11-20T03:23:33;8.80;99.90
16825;DHT22;8529;48.108;-1.706;2022-11-20T03:26:08;8.80;99.90
16825;DHT22;8529;48.108;-1.706;2022-11-20T03:28:35;8.80;99.90
16825;DHT22;8529;48.108;-1.706;2022-11-20T03:31:09;8.80;99.90
16825;DHT22;8529;48.108;-1.706;2022-11-20T03:33:37;8.80;99.90
16825;DHT22;8529;48.108;-1.706;2022-11-20T03:36:05;8.80;99.90
16825;DHT22;8529;48.108;-1.706;2022-11-20T03:38:33;8.90;99.90
16825;DHT22;8529;48.108;-1.706;2022-11-20T03:41:00;8.90;99.90
16825;DHT22;8529;48.108;-1.706;2022-11-20T03:43:27;8.90;99.90
16825;DHT22;8529;48.108;-1.706;2022-11-20T03:45:55;8.90;99.90
16825;DHT22;8529;48.108;-1.706;2022-11-20T03:48:23;8.90;99.90
16825;DHT22;8529;48.108;-1.706;2022-11-20T03:50:50;8.90;99.90
16825;DHT22;8529;48.108;-1.706;2022-11-20T03:53:17;8.90;99.90
16825;DHT22;8529;48.108;-1.706;2022-11-20T03:55:45;8.90;99.90
16825;DHT22;8529;48.108;-1.706;2022-11-20T03:58:12;8.90;99.90
16825;DHT22;8529;48.108;-1.706;2022-11-20T04:00:39;8.90;99.90
16825;DHT22;8529;48.108;-1.706;2022-11-20T04:03:06;8.90;99.90
16825;DHT22;8529;48.108;-1.706;2022-11-20T04:05:35;9.00;99.90
16825;DHT22;8529;48.108;-1.706;2022-11-20T04:08:02;9.00;99.90
16825;DHT22;8529;48.108;-1.706;2022-11-20T04:10:29;9.00;99.90
16825;DHT22;8529;48.108;-1.706;2022-11-20T04:12:55;9.00;99.90
16825;DHT22;8529;48.108;-1.706;2022-11-20T04:15:22;9.00;99.90
16825;DHT22;8529;48.108;-1.706;2022-11-20T04:17:49;9.00;99.90
16825;DHT22;8529;48.108;-1.706;2022-11-20T04:20:16;9.10;99.90
16825;DHT22;8529;48.108;-1.706;2022-11-20T04:22:44;9.10;99.90
16825;DHT22;8529;48.108;-1.706;2022-11-20T04:25:11;9.10;99.90
16825;DHT22;8529;48.108;-1.706;2022-11-20T04:27:38;9.10;99.90
16825;DHT22;8529;48.108;-1.706;2022-11-20T04:30:06;9.10;99.90
16825;DHT22;8529;48.108;-1.706;2022-11-20T04:32:33;9.10;99.90
16825;DHT22;8529;48.108;-1.706;2022-11-20T04:35:00;9.10;99.90
16825;DHT22;8529;48.108;-1.706;2022-11-20T04:37:27;9.10;99.90
16825;DHT22;8529;48.108;-1.706;2022-11-20T04:39:55;9.20;99.90
16825;DHT22;8529;48.108;-1.706;2022-11-20T04:42:22;9.20;99.90
16825;DHT22;8529;48.108;-1.706;2022-11-20T04:44:55;9.20;99.90
16825;DHT22;8529;48.108;-1.706;2022-11-20T04:47:22;9.20;99.90
16825;DHT22;8529;48.108;-1.706;2022-11-20T04:49:49;9.20;99.90
16825;DHT22;8529;48.108;-1.706;2022-11-20T04:52:16;9.20;99.90
16825;DHT22;8529;48.108;-1.706;2022-11-20T04:54:43;9.20;99.90
16825;DHT22;8529;48.108;-1.706;2022-11-20T04:57:13;9.20;99.90
16825;DHT22;8529;48.108;-1.706;2022-11-20T04:59:40;9.20;99.90
16825;DHT22;8529;48.108;-1.706;2022-11-20T05:02:07;9.20;99.90
16825;DHT22;8529;48.108;-1.706;2022-11-20T05:04:34;9.20;99.90
16825;DHT22;8529;48.108;-1.706;2022-11-20T05:07:01;9.20;99.90
16825;DHT22;8529;48.108;-1.706;2022-11-20T05:09:28;9.20;99.90
16825;DHT22;8529;48.108;-1.706;2022-11-20T05:11:55;9.20;99.90
16825;DHT22;8529;48.108;-1.706;2022-11-20T05:14:23;9.20;99.90
16825;DHT22;8529;48.108;-1.706;2022-11-20T05:16:50;9.20;99.90
16825;DHT22;8529;48.108;-1.706;2022-11-20T05:19:17;9.20;99.90
16825;DHT22;8529;48.108;-1.706;2022-11-20T05:21:44;9.20;99.90
16825;DHT22;8529;48.108;-1.706;2022-11-20T05:24:11;9.20;99.90
16825;DHT22;8529;48.108;-1.706;2022-11-20T05:26:38;9.20;99.90
16825;DHT22;8529;48.108;-1.706;2022-11-20T05:29:05;9.20;99.90
16825;DHT22;8529;48.108;-1.706;2022-11-20T05:31:33;9.20;99.90
16825;DHT22;8529;48.108;-1.706;2022-11-20T05:34:01;9.20;99.90
16825;DHT22;8529;48.108;-1.706;2022-11-20T05:36:29;9.30;99.90
16825;DHT22;8529;48.108;-1.706;2022-11-20T05:38:56;9.30;99.90
16825;DHT22;8529;48.108;-1.706;2022-11-20T05:41:23;9.30;99.90
16825;DHT22;8529;48.108;-1.706;2022-11-20T05:43:51;9.30;99.90
16825;DHT22;8529;48.108;-1.706;2022-11-20T05:46:19;9.30;99.90
16825;DHT22;8529;48.108;-1.706;2022-11-20T05:48:48;9.30;99.90
16825;DHT22;8529;48.108;-1.706;2022-11-20T05:51:17;9.30;99.90
16825;DHT22;8529;48.108;-1.706;2022-11-20T05:53:44;9.30;99.90
16825;DHT22;8529;48.108;-1.706;2022-11-20T05:56:13;9.30;99.90
16825;DHT22;8529;48.108;-1.706;2022-11-20T05:58:40;9.30;99.90
16825;DHT22;8529;48.108;-1.706;2022-11-20T06:01:10;9.40;99.90
16825;DHT22;8529;48.108;-1.706;2022-11-20T06:03:38;9.40;99.90
16825;DHT22;8529;48.108;-1.706;2022-11-20T06:06:07;9.40;99.90
16825;DHT22;8529;48.108;-1.706;2022-11-20T06:08:34;9.40;99.90
16825;DHT22;8529;48.108;-1.706;2022-11-20T06:11:05;9.40;99.90
16825;DHT22;8529;48.108;-1.706;2022-11-20T06:13:33;9.40;99.90
16825;DHT22;8529;48.108;-1.706;2022-11-20T06:16:00;9.40;99.90
16825;DHT22;8529;48.108;-1.706;2022-11-20T06:18:28;9.40;99.90
16825;DHT22;8529;48.108;-1.706;2022-11-20T06:21:00;9.40;99.90
16825;DHT22;8529;48.108;-1.706;2022-11-20T06:23:29;9.50;99.90
16825;DHT22;8529;48.108;-1.706;2022-11-20T06:25:57;9.50;99.90
16825;DHT22;8529;48.108;-1.706;2022-11-20T06:28:24;9.50;99.90
16825;DHT22;8529;48.108;-1.706;2022-11-20T06:30:51;9.50;99.90
16825;DHT22;8529;48.108;-1.706;2022-11-20T06:33:18;9.50;99.90
16825;DHT22;8529;48.108;-1.706;2022-11-20T06:35:45;9.50;99.90
16825;DHT22;8529;48.108;-1.706;2022-11-20T06:38:12;9.50;99.90
16825;DHT22;8529;48.108;-1.706;2022-11-20T06:40:42;9.50;99.90
16825;DHT22;8529;48.108;-1.706;2022-11-20T06:43:09;9.50;99.90
16825;DHT22;8529;48.108;-1.706;2022-11-20T06:45:36;9.50;99.90
16825;DHT22;8529;48.108;-1.706;2022-11-20T06:48:03;9.50;99.90
16825;DHT22;8529;48.108;-1.706;2022-11-20T06:50:30;9.50;99.90
16825;DHT22;8529;48.108;-1.706;2022-11-20T06:53:00;9.50;99.90
16825;DHT22;8529;48.108;-1.706;2022-11-20T06:55:27;9.50;99.90
16825;DHT22;8529;48.108;-1.706;2022-11-20T06:57:56;9.50;99.90
16825;DHT22;8529;48.108;-1.706;2022-11-20T07:00:23;9.40;99.90
16825;DHT22;8529;48.108;-1.706;2022-11-20T07:02:50;9.40;99.90
16825;DHT22;8529;48.108;-1.706;2022-11-20T07:05:17;9.30;99.90
16825;DHT22;8529;48.108;-1.706;2022-11-20T07:07:44;9.30;99.90
16825;DHT22;8529;48.108;-1.706;2022-11-20T07:10:11;9.20;99.90
16825;DHT22;8529;48.108;-1.706;2022-11-20T07:12:38;9.30;99.90
16825;DHT22;8529;48.108;-1.706;2022-11-20T07:15:08;9.30;99.90
16825;DHT22;8529;48.108;-1.706;2022-11-20T07:17:35;9.30;99.90
16825;DHT22;8529;48.108;-1.706;2022-11-20T07:20:02;9.30;99.90
16825;DHT22;8529;48.108;-1.706;2022-11-20T07:22:29;9.30;99.90
16825;DHT22;8529;48.108;-1.706;2022-11-20T07:24:56;9.30;99.90
16825;DHT22;8529;48.108;-1.706;2022-11-20T07:27:23;9.30;99.90
16825;DHT22;8529;48.108;-1.706;2022-11-20T07:29:50;9.30;99.90
16825;DHT22;8529;48.108;-1.706;2022-11-20T07:32:18;9.30;99.90
16825;DHT22;8529;48.108;-1.706;2022-11-20T07:34:45;9.30;99.90
16825;DHT22;8529;48.108;-1.706;2022-11-20T07:37:12;9.30;99.90
16825;DHT22;8529;48.108;-1.706;2022-11-20T07:39:39;9.40;99.90
16825;DHT22;8529;48.108;-1.706;2022-11-20T07:42:07;9.40;99.90
16825;DHT22;8529;48.108;-1.706;2022-11-20T07:44:33;9.40;99.90
16825;DHT22;8529;48.108;-1.706;2022-11-20T07:47:00;9.40;99.90
16825;DHT22;8529;48.108;-1.706;2022-11-20T07:49:29;9.30;99.90
16825;DHT22;8529;48.108;-1.706;2022-11-20T07:51:56;9.20;99.90
16825;DHT22;8529;48.108;-1.706;2022-11-20T07:54:23;9.20;99.90
16825;DHT22;8529;48.108;-1.706;2022-11-20T07:56:50;9.10;99.90
16825;DHT22;8529;48.108;-1.706;2022-11-20T07:59:17;9.10;99.90
16825;DHT22;8529;48.108;-1.706;2022-11-20T08:01:44;9.10;99.90
16825;DHT22;8529;48.108;-1.706;2022-11-20T08:04:11;9.00;99.90
16825;DHT22;8529;48.108;-1.706;2022-11-20T08:06:39;9.00;99.90
16825;DHT22;8529;48.108;-1.706;2022-11-20T08:09:06;8.90;99.90
16825;DHT22;8529;48.108;-1.706;2022-11-20T08:11:33;8.90;99.90
16825;DHT22;8529;48.108;-1.706;2022-11-20T08:14:18;9.00;99.90
16825;DHT22;8529;48.108;-1.706;2022-11-20T08:16:47;9.00;99.90
16825;DHT22;8529;48.108;-1.706;2022-11-20T08:19:15;9.00;99.90
16825;DHT22;8529;48.108;-1.706;2022-11-20T08:21:44;9.00;99.90
16825;DHT22;8529;48.108;-1.706;2022-11-20T08:24:11;9.00;99.90
16825;DHT22;8529;48.108;-1.706;2022-11-20T08:26:39;8.90;99.90
16825;DHT22;8529;48.108;-1.706;2022-11-20T08:29:06;8.90;99.90
16825;DHT22;8529;48.108;-1.706;2022-11-20T08:31:33;8.90;99.90
16825;DHT22;8529;48.108;-1.706;2022-11-20T08:34:00;8.90;99.90
16825;DHT22;8529;48.108;-1.706;2022-11-20T08:36:27;8.90;99.90
16825;DHT22;8529;48.108;-1.706;2022-11-20T08:38:56;9.00;99.90
16825;DHT22;8529;48.108;-1.706;2022-11-20T08:41:23;9.00;99.90
16825;DHT22;8529;48.108;-1.706;2022-11-20T08:43:52;9.10;99.90
16825;DHT22;8529;48.108;-1.706;2022-11-20T08:46:19;9.10;99.90
16825;DHT22;8529;48.108;-1.706;2022-11-20T08:48:46;9.20;99.90
16825;DHT22;8529;48.108;-1.706;2022-11-20T08:51:14;9.30;99.90
16825;DHT22;8529;48.108;-1.706;2022-11-20T08:53:41;9.40;99.90
16825;DHT22;8529;48.108;-1.706;2022-11-20T08:56:10;9.40;99.90
16825;DHT22;8529;48.108;-1.706;2022-11-20T08:58:37;9.50;99.90
16825;DHT22;8529;48.108;-1.706;2022-11-20T09:01:05;9.50;99.90
16825;DHT22;8529;48.108;-1.706;2022-11-20T09:03:32;9.50;99.90
16825;DHT22;8529;48.108;-1.706;2022-11-20T09:05:59;9.50;99.90
16825;DHT22;8529;48.108;-1.706;2022-11-20T09:08:27;9.50;99.90
16825;DHT22;8529;48.108;-1.706;2022-11-20T09:10:56;9.60;99.90
16825;DHT22;8529;48.108;-1.706;2022-11-20T09:13:26;9.60;99.90
16825;DHT22;8529;48.108;-1.706;2022-11-20T09:15:54;9.60;99.90
16825;DHT22;8529;48.108;-1.706;2022-11-20T09:18:22;9.60;99.90
16825;DHT22;8529;48.108;-1.706;2022-11-20T09:20:49;9.60;99.90
16825;DHT22;8529;48.108;-1.706;2022-11-20T09:23:16;9.70;99.90
16825;DHT22;8529;48.108;-1.706;2022-11-20T09:25:44;9.70;99.90
16825;DHT22;8529;48.108;-1.706;2022-11-20T09:28:11;9.70;99.90
16825;DHT22;8529;48.108;-1.706;2022-11-20T09:30:39;9.80;99.90
16825;DHT22;8529;48.108;-1.706;2022-11-20T09:33:06;9.80;99.90
16825;DHT22;8529;48.108;-1.706;2022-11-20T09:35:33;9.80;99.90
16825;DHT22;8529;48.108;-1.706;2022-11-20T09:38:05;9.80;99.90
16825;DHT22;8529;48.108;-1.706;2022-11-20T09:40:34;9.90;99.90
16825;DHT22;8529;48.108;-1.706;2022-11-20T09:43:04;9.90;99.90
16825;DHT22;8529;48.108;-1.706;2022-11-20T09:45:43;9.90;99.90
16825;DHT22;8529;48.108;-1.706;2022-11-20T09:51:32;10.00;99.90
16825;DHT22;8529;48.108;-1.706;2022-11-20T09:54:12;10.00;99.90
16825;DHT22;8529;48.108;-1.706;2022-11-20T09:56:43;10.10;99.90
16825;DHT22;8529;48.108;-1.706;2022-11-20T09:59:20;10.10;99.90
16825;DHT22;8529;48.108;-1.706;2022-11-20T10:01:50;10.20;99.90
16825;DHT22;8529;48.108;-1.706;2022-11-20T10:04:19;10.30;99.90
16825;DHT22;8529;48.108;-1.706;2022-11-20T10:06:52;10.30;99.90
16825;DHT22;8529;48.108;-1.706;2022-11-20T10:09:29;10.30;99.90
16825;DHT22;8529;48.108;-1.706;2022-11-20T10:12:06;10.40;99.90
16825;DHT22;8529;48.108;-1.706;2022-11-20T10:14:46;10.40;99.90
16825;DHT22;8529;48.108;-1.706;2022-11-20T10:17:24;10.40;99.90
16825;DHT22;8529;48.108;-1.706;2022-11-20T10:20:02;10.30;99.90
16825;DHT22;8529;48.108;-1.706;2022-11-20T10:22:41;10.40;99.90
16825;DHT22;8529;48.108;-1.706;2022-11-20T10:25:14;10.30;99.90
16825;DHT22;8529;48.108;-1.706;2022-11-20T10:28:11;10.30;99.90
16825;DHT22;8529;48.108;-1.706;2022-11-20T10:30:42;10.40;99.90
16825;DHT22;8529;48.108;-1.706;2022-11-20T10:33:15;10.40;99.90
16825;DHT22;8529;48.108;-1.706;2022-11-20T10:35:45;10.40;99.90
16825;DHT22;8529;48.108;-1.706;2022-11-20T10:38:20;10.50;99.90
16825;DHT22;8529;48.108;-1.706;2022-11-20T10:40:51;10.50;99.90
16825;DHT22;8529;48.108;-1.706;2022-11-20T10:43:23;10.60;99.90
16825;DHT22;8529;48.108;-1.706;2022-11-20T10:45:58;10.60;99.90
16825;DHT22;8529;48.108;-1.706;2022-11-20T10:48:27;10.70;99.90
16825;DHT22;8529;48.108;-1.706;2022-11-20T10:51:13;10.70;99.90
16825;DHT22;8529;48.108;-1.706;2022-11-20T10:53:58;10.70;99.90
16825;DHT22;8529;48.108;-1.706;2022-11-20T10:56:34;10.70;99.90
16825;DHT22;8529;48.108;-1.706;2022-11-20T10:59:14;10.70;99.90
16825;DHT22;8529;48.108;-1.706;2022-11-20T11:01:50;10.70;99.90
16825;DHT22;8529;48.108;-1.706;2022-11-20T11:04:33;10.70;99.90
16825;DHT22;8529;48.108;-1.706;2022-11-20T11:07:08;10.70;99.90
16825;DHT22;8529;48.108;-1.706;2022-11-20T11:09:41;10.70;99.90
16825;DHT22;8529;48.108;-1.706;2022-11-20T11:12:09;10.80;99.90
16825;DHT22;8529;48.108;-1.706;2022-11-20T11:14:45;10.80;99.90
16825;DHT22;8529;48.108;-1.706;2022-11-20T11:17:24;10.90;99.90
16825;DHT22;8529;48.108;-1.706;2022-11-20T11:20:06;10.90;99.90
16825;DHT22;8529;48.108;-1.706;2022-11-20T11:22:34;10.90;99.90
16825;DHT22;8529;48.108;-1.706;2022-11-20T11:25:19;10.90;99.90
16825;DHT22;8529;48.108;-1.706;2022-11-20T11:27:46;11.00;99.90
16825;DHT22;8529;48.108;-1.706;2022-11-20T11:30:15;11.10;99.90
16825;DHT22;8529;48.108;-1.706;2022-11-20T11:32:43;11.10;99.90
16825;DHT22;8529;48.108;-1.706;2022-11-20T11:35:26;11.20;99.90
16825;DHT22;8529;48.108;-1.706;2022-11-20T11:38:03;11.20;99.90
16825;DHT22;8529;48.108;-1.706;2022-11-20T11:40:32;11.20;99.90
16825;DHT22;8529;48.108;-1.706;2022-11-20T11:43:02;11.20;99.90
16825;DHT22;8529;48.108;-1.706;2022-11-20T11:45:54;11.20;99.90
16825;DHT22;8529;48.108;-1.706;2022-11-20T11:48:20;11.20;99.90
16825;DHT22;8529;48.108;-1.706;2022-11-20T11:50:50;11.20;99.90
16825;DHT22;8529;48.108;-1.706;2022-11-20T11:53:18;11.20;99.90
16825;DHT22;8529;48.108;-1.706;2022-11-20T11:55:49;11.20;99.90
16825;DHT22;8529;48.108;-1.706;2022-11-20T11:58:28;11.20;99.90
16825;DHT22;8529;48.108;-1.706;2022-11-20T12:01:03;11.20;99.90
16825;DHT22;8529;48.108;-1.706;2022-11-20T12:03:35;11.20;99.90
16825;DHT22;8529;48.108;-1.706;2022-11-20T12:06:10;11.20;99.90
16825;DHT22;8529;48.108;-1.706;2022-11-20T12:08:43;11.30;99.90
16825;DHT22;8529;48.108;-1.706;2022-11-20T12:11:14;11.30;99.90
16825;DHT22;8529;48.108;-1.706;2022-11-20T12:13:47;11.30;99.90
16825;DHT22;8529;48.108;-1.706;2022-11-20T12:16:18;11.30;99.90
16825;DHT22;8529;48.108;-1.706;2022-11-20T12:18:47;11.30;99.90
16825;DHT22;8529;48.108;-1.706;2022-11-20T12:21:25;11.20;99.90
16825;DHT22;8529;48.108;-1.706;2022-11-20T12:24:23;11.30;99.90
16825;DHT22;8529;48.108;-1.706;2022-11-20T12:27:06;11.30;99.90
16825;DHT22;8529;48.108;-1.706;2022-11-20T12:29:43;11.30;99.90
16825;DHT22;8529;48.108;-1.706;2022-11-20T12:35:30;11.50;99.90
16825;DHT22;8529;48.108;-1.706;2022-11-20T12:38:11;11.60;99.90
16825;DHT22;8529;48.108;-1.706;2022-11-20T12:40:45;11.60;99.90
16825;DHT22;8529;48.108;-1.706;2022-11-20T12:43:19;11.60;99.90
16825;DHT22;8529;48.108;-1.706;2022-11-20T12:46:25;11.60;99.90
16825;DHT22;8529;48.108;-1.706;2022-11-20T12:49:15;11.70;99.90
16825;DHT22;8529;48.108;-1.706;2022-11-20T12:52:17;11.80;99.90
16825;DHT22;8529;48.108;-1.706;2022-11-20T12:55:12;11.80;99.90
16825;DHT22;8529;48.108;-1.706;2022-11-20T12:57:47;11.90;99.90
16825;DHT22;8529;48.108;-1.706;2022-11-20T13:00:18;11.90;99.90
16825;DHT22;8529;48.108;-1.706;2022-11-20T13:05:53;11.90;99.90
16825;DHT22;8529;48.108;-1.706;2022-11-20T13:08:24;11.80;99.90
16825;DHT22;8529;48.108;-1.706;2022-11-20T13:10:58;11.80;99.90
16825;DHT22;8529;48.108;-1.706;2022-11-20T13:13:33;11.80;99.90
16825;DHT22;8529;48.108;-1.706;2022-11-20T13:16:06;11.90;99.90
16825;DHT22;8529;48.108;-1.706;2022-11-20T13:18:38;12.00;99.90
16825;DHT22;8529;48.108;-1.706;2022-11-20T13:21:15;12.00;99.90
16825;DHT22;8529;48.108;-1.706;2022-11-20T13:23:42;12.10;99.90
16825;DHT22;8529;48.108;-1.706;2022-11-20T13:26:18;12.10;99.90
16825;DHT22;8529;48.108;-1.706;2022-11-20T13:28:46;12.10;99.90
16825;DHT22;8529;48.108;-1.706;2022-11-20T13:31:31;12.20;99.90
16825;DHT22;8529;48.108;-1.706;2022-11-20T13:34:00;12.20;99.90
16825;DHT22;8529;48.108;-1.706;2022-11-20T13:36:29;12.20;99.90
16825;DHT22;8529;48.108;-1.706;2022-11-20T13:38:58;12.20;99.90
16825;DHT22;8529;48.108;-1.706;2022-11-20T13:41:29;12.30;99.90
16825;DHT22;8529;48.108;-1.706;2022-11-20T13:44:05;12.30;99.90
16825;DHT22;8529;48.108;-1.706;2022-11-20T13:46:37;12.20;99.90
16825;DHT22;8529;48.108;-1.706;2022-11-20T13:49:08;12.20;99.90
16825;DHT22;8529;48.108;-1.706;2022-11-20T13:51:41;12.20;99.90
16825;DHT22;8529;48.108;-1.706;2022-11-20T13:54:45;12.20;99.90
16825;DHT22;8529;48.108;-1.706;2022-11-20T13:57:49;12.20;99.90
16825;DHT22;8529;48.108;-1.706;2022-11-20T14:00:20;12.30;99.90
16825;DHT22;8529;48.108;-1.706;2022-11-20T14:02:59;12.30;99.90
16825;DHT22;8529;48.108;-1.706;2022-11-20T14:05:28;12.30;99.90
16825;DHT22;8529;48.108;-1.706;2022-11-20T14:07:57;12.20;99.90
16825;DHT22;8529;48.108;-1.706;2022-11-20T14:10:27;12.20;99.90
16825;DHT22;8529;48.108;-1.706;2022-11-20T14:12:55;12.20;99.90
16825;DHT22;8529;48.108;-1.706;2022-11-20T14:15:28;12.20;99.90
16825;DHT22;8529;48.108;-1.706;2022-11-20T14:17:55;12.20;99.90
16825;DHT22;8529;48.108;-1.706;2022-11-20T14:20:24;12.10;99.90
16825;DHT22;8529;48.108;-1.706;2022-11-20T14:22:52;12.10;99.90
16825;DHT22;8529;48.108;-1.706;2022-11-20T14:25:21;12.00;99.90
16825;DHT22;8529;48.108;-1.706;2022-11-20T14:27:55;12.00;99.90
16825;DHT22;8529;48.108;-1.706;2022-11-20T14:30:24;12.00;99.90
16825;DHT22;8529;48.108;-1.706;2022-11-20T14:32:53;12.00;99.90
16825;DHT22;8529;48.108;-1.706;2022-11-20T14:35:23;12.00;99.90
16825;DHT22;8529;48.108;-1.706;2022-11-20T14:37:51;12.00;99.90
16825;DHT22;8529;48.108;-1.706;2022-11-20T14:40:24;12.00;99.90
16825;DHT22;8529;48.108;-1.706;2022-11-20T14:42:52;12.10;99.90
16825;DHT22;8529;48.108;-1.706;2022-11-20T14:45:21;12.10;99.90
16825;DHT22;8529;48.108;-1.706;2022-11-20T14:47:49;12.10;99.90
16825;DHT22;8529;48.108;-1.706;2022-11-20T14:50:19;12.10;99.90
16825;DHT22;8529;48.108;-1.706;2022-11-20T14:52:51;12.10;99.90
16825;DHT22;8529;48.108;-1.706;2022-11-20T14:55:26;12.10;99.90
16825;DHT22;8529;48.108;-1.706;2022-11-20T14:57:58;12.10;99.90
16825;DHT22;8529;48.108;-1.706;2022-11-20T15:00:27;12.00;99.90
16825;DHT22;8529;48.108;-1.706;2022-11-20T15:02:54;12.00;99.90
16825;DHT22;8529;48.108;-1.706;2022-11-20T15:05:23;11.90;99.90
16825;DHT22;8529;48.108;-1.706;2022-11-20T15:08:04;11.80;99.90
16825;DHT22;8529;48.108;-1.706;2022-11-20T15:10:31;11.80;99.90
16825;DHT22;8529;48.108;-1.706;2022-11-20T15:13:01;11.70;99.90
16825;DHT22;8529;48.108;-1.706;2022-11-20T15:15:32;11.70;99.90
16825;DHT22;8529;48.108;-1.706;2022-11-20T15:18:00;11.60;99.90
16825;DHT22;8529;48.108;-1.706;2022-11-20T15:20:30;11.60;99.90
16825;DHT22;8529;48.108;-1.706;2022-11-20T15:22:57;11.60;99.90
16825;DHT22;8529;48.108;-1.706;2022-11-20T15:25:24;11.60;99.90
16825;DHT22;8529;48.108;-1.706;2022-11-20T15:27:54;11.40;99.90
16825;DHT22;8529;48.108;-1.706;2022-11-20T15:30:22;11.40;99.90
16825;DHT22;8529;48.108;-1.706;2022-11-20T15:32:51;11.30;99.90
16825;DHT22;8529;48.108;-1.706;2022-11-20T15:35:18;11.30;99.90
16825;DHT22;8529;48.108;-1.706;2022-11-20T15:37:45;11.30;99.90
16825;DHT22;8529;48.108;-1.706;2022-11-20T15:40:12;11.20;99.90
16825;DHT22;8529;48.108;-1.706;2022-11-20T15:42:39;11.20;99.90
16825;DHT22;8529;48.108;-1.706;2022-11-20T15:45:29;11.20;99.90
16825;DHT22;8529;48.108;-1.706;2022-11-20T15:47:58;11.10;99.90
16825;DHT22;8529;48.108;-1.706;2022-11-20T15:50:29;11.00;99.90
16825;DHT22;8529;48.108;-1.706;2022-11-20T15:52:57;11.00;99.90
16825;DHT22;8529;48.108;-1.706;2022-11-20T15:55:24;10.80;99.90
16825;DHT22;8529;48.108;-1.706;2022-11-20T15:57:51;10.80;99.90
16825;DHT22;8529;48.108;-1.706;2022-11-20T16:00:18;10.80;99.90
16825;DHT22;8529;48.108;-1.706;2022-11-20T16:02:45;10.70;99.90
16825;DHT22;8529;48.108;-1.706;2022-11-20T16:05:15;10.70;99.90
16825;DHT22;8529;48.108;-1.706;2022-11-20T16:07:43;10.80;99.90
16825;DHT22;8529;48.108;-1.706;2022-11-20T16:10:09;10.90;99.90
16825;DHT22;8529;48.108;-1.706;2022-11-20T16:12:36;10.90;99.90